Cabot, Vermont
Current Conditions -  °F | °C
As of 8:54 PM on Sunday 25 Jan 2015 (Local Time) from KMVL Reporting Station
Clear Clear  
Wind Chill:   Ceiling: Unl
Heat Index:   Visibility: 10mi
Dew Point: -6°   Wind: 0mph
Humidity: 69%   Direction: NA
Pressure: 30.03"   Gusts: NA
Location:  44.4°N, 72.31°W
Report Text: KMVL 260154Z AUTO 00000KT 10SM CLR M17/M21 A3003 RMK AO2 SLP189 T11671211 TSNO
Loading
Personal Weather Stations






























Interactive Weather Map New forecast layout! Learn more

10-Day Weather Forecast

Advertisements
Track Severe Weather on mobile